Stolt Effort — ZCSP6 — position and weather

sailwx.info

Track history (hours):
 
Tides and Currents Weather Stations Pressure Air Temp Water Temp Dewpoint Dewpoint Depression Visibility Wind Speed Wind Dir Waves Ship Positions

Stolt Effort

Last reported at 2016-Jun-20 09:25 UTC. Time now 2016-Jun-28 17:03 UTC.
Position N 01°15' E 104°10'.
Warning: this ship's position is 8 days out of date.

Length 176 m; draft 8.7 m.

Type: Ship (hazmat cat A). MMSI: 319445000.

Date/timePositionNaut miles runAvg speedWind from/ knotsBaromVisibWave heightAir tempDewpointWater temp
2016-Jun-20 09:25N 01°15' E 104°10'1315.0
2016-Jun-20 08:33N 01°14' E 103°58'21 8.4
2016-Jun-20 06:04N 01°11' E 103°37'5 9.6
2016-Jun-20 05:33N 01°11' E 103°42'0 0.0
2016-Jun-19 18:21N 01°11' E 103°42'3 4.4
2016-Jun-19 17:33N 01°14' E 103°43'2 2.4
2016-Jun-19 16:31N 01°16' E 103°44'0 0.0
2016-Jun-19 15:19N 01°16' E 103°44'0 0.0
2016-Jun-19 13:16N 01°16' E 103°44'0 0.0
2016-Jun-19 06:04N 01°16' E 103°44'0 0.0
2016-Jun-18 22:04N 01°16' E 103°44'0 0.0
2016-Jun-18 20:13N 01°16' E 103°44'0 0.0
2016-Jun-18 19:31N 01°16' E 103°44'0 0.3
2016-Jun-18 18:33N 01°16' E 103°44'2 0.1
2016-Jun-17 08:06N 01°18' E 103°44'0 0.0
2016-Jun-17 07:33N 01°18' E 103°44'0 0.0
2016-Jun-17 06:27N 01°18' E 103°44'1 0.6
2016-Jun-17 05:33N 01°17' E 103°44'6 4.4
2016-Jun-17 04:12N 01°12' E 103°41'0 0.0
2016-Jun-17 03:24N 01°12' E 103°41'0 0.0
2016-Jun-17 00:09N 01°12' E 103°41'0 0.0
2016-Jun-16 16:24N 01°12' E 103°41'1 0.1
2016-Jun-16 09:32N 01°13' E 103°41'3 0.1
2016-Jun-14 16:33N 01°15' E 103°42'4 0.7
2016-Jun-14 10:33N 01°13' E 103°39'8 7.9
2016-Jun-14 09:33N 01°09' E 103°46'1515.4
2016-Jun-14 08:33N 01°15' E 103°60'  
Track history (hours):
 
Tides and Currents Weather Stations Pressure Air Temp Water Temp Dewpoint Dewpoint Depression Visibility Wind Speed Wind Dir Waves Ship Positions

Stolt Effort

Last reported at 2016-Jun-20 09:25 UTC. Time now 2016-Jun-28 17:03 UTC.
Position N 01°15' E 104°10'.
Warning: this ship's position is 8 days out of date.

Length 176 m; draft 8.7 m.

Type: Ship (hazmat cat A). MMSI: 319445000.

Date/timePositionNaut miles runAvg speedWind from/ knotsBaromVisibWave heightAir tempDewpointWater temp
2016-Jun-20 09:25N 01°15' E 104°10'1315.0
2016-Jun-20 08:33N 01°14' E 103°58'21 8.4
2016-Jun-20 06:04N 01°11' E 103°37'5 9.6
2016-Jun-20 05:33N 01°11' E 103°42'0 0.0
2016-Jun-19 18:21N 01°11' E 103°42'3 4.4
2016-Jun-19 17:33N 01°14' E 103°43'2 2.4
2016-Jun-19 16:31N 01°16' E 103°44'0 0.0
2016-Jun-19 15:19N 01°16' E 103°44'0 0.0
2016-Jun-19 13:16N 01°16' E 103°44'0 0.0
2016-Jun-19 06:04N 01°16' E 103°44'0 0.0
2016-Jun-18 22:04N 01°16' E 103°44'0 0.0
2016-Jun-18 20:13N 01°16' E 103°44'0 0.0
2016-Jun-18 19:31N 01°16' E 103°44'0 0.3
2016-Jun-18 18:33N 01°16' E 103°44'2 0.1
2016-Jun-17 08:06N 01°18' E 103°44'0 0.0
2016-Jun-17 07:33N 01°18' E 103°44'0 0.0
2016-Jun-17 06:27N 01°18' E 103°44'1 0.6
2016-Jun-17 05:33N 01°17' E 103°44'6 4.4
2016-Jun-17 04:12N 01°12' E 103°41'0 0.0
2016-Jun-17 03:24N 01°12' E 103°41'0 0.0
2016-Jun-17 00:09N 01°12' E 103°41'0 0.0
2016-Jun-16 16:24N 01°12' E 103°41'1 0.1
2016-Jun-16 09:32N 01°13' E 103°41'3 0.1
2016-Jun-14 16:33N 01°15' E 103°42'4 0.7
2016-Jun-14 10:33N 01°13' E 103°39'8 7.9
2016-Jun-14 09:33N 01°09' E 103°46'1515.4
2016-Jun-14 08:33N 01°15' E 103°60'  

Dump ship's entire track history